Time;durP1;ratioP1;P1;durP2;ratioP2;P2;SDS_P1;SDS_P2;PMS_P1;PMS_P2;Temp;Humidity;BMP_temperature;BMP_pressure;BME280_temperature;BME280_humidity;BME280_pressure;Samples;Min_cycle;Max_cycle;Signal;HPM_P1;HPM_P2
2024/01/23 00:00:16;;;;;;;28.60;14.80;;;;;;;-10.92;100.00;139636.44;106990;1263;25325;-60
2024/01/23 00:03:02;;;;;;;33.10;17.70;;;;;;;-10.89;100.00;139642.36;107012;1274;25398;-60
2024/01/23 00:05:47;;;;;;;35.00;17.60;;;;;;;-10.87;100.00;139649.02;106924;1273;25472;-59
2024/01/23 00:08:33;;;;;;;35.60;19.00;;;;;;;-10.88;100.00;139645.56;107029;1267;25350;-62
2024/01/23 00:11:21;;;;;;;35.40;19.20;;;;;;;-10.82;100.00;139659.58;106997;1268;25564;-57
2024/01/23 00:14:08;;;;;;;31.70;16.00;;;;;;;-10.82;100.00;139660.81;106990;1268;25350;-53
2024/01/23 00:16:54;;;;;;;28.80;16.40;;;;;;;-10.85;100.00;139652.95;107034;1264;25341;-62
2024/01/23 00:19:39;;;;;;;32.40;18.30;;;;;;;-10.93;100.00;139635.47;107227;1267;25350;-61
2024/01/23 00:22:25;;;;;;;30.30;16.40;;;;;;;-10.99;100.00;139620.22;107116;1267;22559;-58
2024/01/23 00:25:11;;;;;;;31.50;17.10;;;;;;;-10.97;100.00;139623.66;107303;1274;25517;-61
2024/01/23 00:27:56;;;;;;;31.80;17.40;;;;;;;-10.91;100.00;139638.41;107107;1267;25523;-58
2024/01/23 00:30:42;;;;;;;30.20;17.20;;;;;;;-10.84;100.00;139654.91;107086;1267;25400;-60
2024/01/23 00:33:28;;;;;;;29.00;16.20;;;;;;;-10.80;100.00;139666.72;107125;1265;25516;-59
2024/01/23 00:36:13;;;;;;;29.00;16.30;;;;;;;-10.83;100.00;139656.84;107062;1267;22523;-60
2024/01/23 00:38:59;;;;;;;27.00;13.80;;;;;;;-10.85;100.00;139653.92;107290;1267;25350;-59
2024/01/23 00:41:44;;;;;;;28.60;17.00;;;;;;;-10.78;100.00;139669.41;107076;1264;25402;-56
2024/01/23 00:44:30;;;;;;;28.80;17.00;;;;;;;-10.72;100.00;139684.92;107172;1263;25359;-60
2024/01/23 00:47:15;;;;;;;32.70;17.90;;;;;;;-10.73;100.00;139681.47;107087;1267;25420;-60
2024/01/23 00:50:01;;;;;;;32.40;17.60;;;;;;;-10.76;100.00;139674.09;107250;1264;25429;-60
2024/01/23 00:52:47;;;;;;;32.40;18.50;;;;;;;-10.70;100.00;139688.61;107125;1264;25408;-57
2024/01/23 00:55:32;;;;;;;33.00;17.50;;;;;;;-10.71;100.00;139686.89;107034;1264;25440;-59
2024/01/23 00:58:18;;;;;;;29.80;17.30;;;;;;;-10.73;100.00;139682.20;107131;1260;25516;-56
2024/01/23 01:01:04;;;;;;;30.50;16.30;;;;;;;-10.76;100.00;139675.33;107172;1267;25353;-57
2024/01/23 01:03:52;;;;;;;26.60;15.60;;;;;;;-10.78;100.00;139670.66;107088;1273;25510;-61
2024/01/23 01:06:38;;;;;;;27.70;16.50;;;;;;;-10.81;100.00;139662.78;107070;1261;25372;-59
2024/01/23 01:09:25;;;;;;;28.20;16.00;;;;;;;-10.77;100.00;139671.66;107177;1261;25326;-60
2024/01/23 01:12:11;;;;;;;28.40;15.40;;;;;;;-10.73;100.00;139681.72;107107;1272;25334;-61
2024/01/23 01:14:57;;;;;;;30.20;16.20;;;;;;;-10.69;100.00;139691.55;107132;1269;25334;-58
2024/01/23 01:17:43;;;;;;;27.90;15.70;;;;;;;-10.65;100.00;139700.91;107142;1261;25459;-56
2024/01/23 01:20:28;;;;;;;31.70;16.50;;;;;;;-10.62;100.00;139708.28;107143;1261;25583;-56
2024/01/23 01:23:16;;;;;;;26.70;15.20;;;;;;;-10.65;100.00;139700.42;106998;1274;25350;-59
2024/01/23 01:26:02;;;;;;;29.50;16.60;;;;;;;-10.64;100.00;139704.09;107034;1264;25472;-58
2024/01/23 01:28:47;;;;;;;25.90;15.10;;;;;;;-10.66;100.00;139698.47;106995;1264;25576;-58
2024/01/23 01:31:33;;;;;;;29.60;16.10;;;;;;;-10.67;100.00;139695.75;106996;1260;25399;-55
2024/01/23 01:34:19;;;;;;;28.40;16.10;;;;;;;-10.63;100.00;139704.84;107013;1271;25335;-60
2024/01/23 01:37:04;;;;;;;25.80;13.80;;;;;;;-10.60;100.00;139713.95;107030;1260;25425;-61
2024/01/23 01:39:50;;;;;;;31.00;16.80;;;;;;;-10.60;100.00;139711.97;106978;1264;25359;-58
2024/01/23 01:42:36;;;;;;;27.50;16.40;;;;;;;-10.64;100.00;139704.09;107007;1263;25332;-58
2024/01/23 01:45:21;;;;;;;28.20;15.50;;;;;;;-10.60;100.00;139712.00;106988;1266;25519;-58
2024/01/23 01:48:08;;;;;;;29.30;16.60;;;;;;;-10.58;100.00;139716.92;106995;1264;25405;-59
2024/01/23 01:50:54;;;;;;;24.80;13.50;;;;;;;-10.59;100.00;139715.92;106986;1264;25490;-58
2024/01/23 01:53:40;;;;;;;26.80;15.50;;;;;;;-10.55;100.00;139725.53;107021;1264;25361;-57
2024/01/23 01:56:27;;;;;;;27.30;15.90;;;;;;;-10.55;100.00;139725.28;107013;1271;25344;-56
2024/01/23 01:59:13;;;;;;;27.90;16.40;;;;;;;-10.60;100.00;139711.75;107017;1261;25334;-56
2024/01/23 02:01:59;;;;;;;28.20;14.50;;;;;;;-10.67;100.00;139695.75;107048;1266;25442;-62
2024/01/23 02:04:45;;;;;;;28.70;15.70;;;;;;;-10.61;100.00;139710.25;107006;1263;25334;-57
2024/01/23 02:07:33;;;;;;;25.50;14.70;;;;;;;-10.57;100.00;139719.59;107020;1264;25322;-59
2024/01/23 02:10:18;;;;;;;25.40;14.50;;;;;;;-10.60;100.00;139712.72;106971;1273;25584;-59
2024/01/23 02:13:06;;;;;;;25.60;15.40;;;;;;;-10.57;100.00;139720.34;107086;1264;25424;-59
2024/01/23 02:15:53;;;;;;;25.10;13.50;;;;;;;-10.60;100.00;139713.95;107111;1267;25284;-60
2024/01/23 02:18:38;;;;;;;26.00;14.40;;;;;;;-10.64;100.00;139701.91;107119;1263;24032;-60
2024/01/23 02:21:24;;;;;;;28.40;16.70;;;;;;;-10.64;100.00;139703.13;107162;1264;25511;-61
2024/01/23 02:24:10;;;;;;;28.80;15.40;;;;;;;-10.65;100.00;139700.66;107102;1267;25485;-58
2024/01/23 02:26:55;;;;;;;26.80;14.50;;;;;;;-10.68;100.00;139694.52;107071;1264;25363;-59
2024/01/23 02:29:41;;;;;;;26.50;14.30;;;;;;;-10.65;100.00;139700.16;107085;1264;25341;-57
2024/01/23 02:32:26;;;;;;;25.00;14.00;;;;;;;-10.64;100.00;139703.61;107070;1264;22584;-58
2024/01/23 02:35:13;;;;;;;26.00;15.10;;;;;;;-10.65;100.00;139701.16;107058;1267;25325;-57
2024/01/23 02:37:59;;;;;;;23.70;13.80;;;;;;;-10.61;100.00;139710.03;107101;1264;25421;-54
2024/01/23 02:40:45;;;;;;;24.90;13.50;;;;;;;-10.61;100.00;139710.50;107198;1264;25440;-57
2024/01/23 02:43:30;;;;;;;27.40;14.70;;;;;;;-10.59;100.00;139715.20;107067;1264;25344;-60
2024/01/23 02:46:16;;;;;;;24.70;14.10;;;;;;;-10.56;100.00;139723.31;107079;1256;25521;-58
2024/01/23 02:49:01;;;;;;;20.10;12.40;;;;;;;-10.55;100.00;139725.28;107056;1264;25353;-56
2024/01/23 02:51:47;;;;;;;25.50;14.20;;;;;;;-10.58;100.00;139717.41;107087;1261;25367;-59
2024/01/23 02:54:33;;;;;;;25.90;14.20;;;;;;;-10.64;100.00;139704.09;107122;1266;25331;-59
2024/01/23 02:57:18;;;;;;;23.30;13.50;;;;;;;-10.60;100.00;139711.50;107129;1264;25452;-57
2024/01/23 03:00:05;;;;;;;28.10;14.70;;;;;;;-10.61;100.00;139709.78;107199;1261;25344;-56
2024/01/23 03:02:51;;;;;;;30.70;14.90;;;;;;;-10.64;100.00;139703.13;107049;1273;25372;-56
2024/01/23 03:05:37;;;;;;;23.90;13.60;;;;;;;-10.62;100.00;139708.30;107112;1260;25429;-59
2024/01/23 03:08:23;;;;;;;20.20;12.60;;;;;;;-10.60;100.00;139713.70;107062;1266;25841;-58
2024/01/23 03:11:09;;;;;;;25.70;13.50;;;;;;;-10.65;100.00;139701.41;107077;1264;25411;-59
2024/01/23 03:13:55;;;;;;;23.30;13.70;;;;;;;-10.67;100.00;139694.53;107212;1260;25527;-58
2024/01/23 03:16:41;;;;;;;22.00;12.90;;;;;;;-10.65;100.00;139700.16;107105;1266;25408;-63
2024/01/23 03:19:26;;;;;;;22.20;13.20;;;;;;;-10.66;100.00;139696.97;107083;1253;25354;-61
2024/01/23 03:22:12;;;;;;;24.00;13.50;;;;;;;-10.67;100.00;139695.73;107103;1267;25343;-58
2024/01/23 03:24:59;;;;;;;26.20;13.10;;;;;;;-10.70;100.00;139690.09;107107;1263;25471;-64
2024/01/23 03:27:45;;;;;;;22.00;12.10;;;;;;;-10.69;100.00;139691.09;107137;1260;24205;-57
2024/01/23 03:30:31;;;;;;;21.80;12.60;;;;;;;-10.63;100.00;139705.58;107145;1266;25530;-62
2024/01/23 03:33:18;;;;;;;23.40;12.70;;;;;;;-10.58;100.00;139718.39;107168;1263;24260;-55
2024/01/23 03:36:04;;;;;;;25.20;13.90;;;;;;;-10.58;100.00;139717.66;107212;1266;25363;-61
2024/01/23 03:38:49;;;;;;;21.30;12.30;;;;;;;-10.55;100.00;139724.78;107093;1263;25351;-60
2024/01/23 03:41:37;;;;;;;21.20;12.60;;;;;;;-10.54;100.00;139727.23;107163;1267;25372;-57
2024/01/23 03:44:24;;;;;;;26.70;14.40;;;;;;;-10.50;100.00;139738.33;107123;1263;26515;-61
2024/01/23 03:47:10;;;;;;;23.20;13.20;;;;;;;-10.50;100.00;139738.33;107119;1260;25356;-62
2024/01/23 03:49:55;;;;;;;24.90;14.30;;;;;;;-10.51;100.00;139735.84;107166;1266;25542;-62
2024/01/23 03:52:41;;;;;;;25.00;13.30;;;;;;;-10.48;100.00;139742.03;107150;1266;25365;-59
2024/01/23 03:55:26;;;;;;;22.30;14.20;;;;;;;-10.43;100.00;139753.34;107217;1267;25347;-59
2024/01/23 03:58:11;;;;;;;23.50;14.40;;;;;;;-10.44;100.00;139751.13;107211;1266;22531;-55
2024/01/23 04:00:59;;;;;;;23.80;14.30;;;;;;;-10.45;100.00;139749.41;107289;1263;25439;-62
2024/01/23 04:03:45;;;;;;;25.00;14.20;;;;;;;-10.46;100.00;139746.94;107203;1262;24343;-58
2024/01/23 04:06:31;;;;;;;24.50;13.40;;;;;;;-10.44;100.00;139750.41;106974;1267;23928;-57
2024/01/23 04:09:17;;;;;;;20.40;11.60;;;;;;;-10.43;100.00;139754.58;106917;1266;25347;-62
2024/01/23 04:12:03;;;;;;;23.50;13.40;;;;;;;-10.40;100.00;139760.47;107187;1260;25359;-63
2024/01/23 04:14:49;;;;;;;24.40;13.60;;;;;;;-10.39;100.00;139765.17;107165;1266;25484;-60
2024/01/23 04:17:34;;;;;;;19.60;11.60;;;;;;;-10.37;100.00;139767.88;107144;1263;25421;-56
2024/01/23 04:20:20;;;;;;;27.20;12.90;;;;;;;-10.39;100.00;139765.16;107136;1263;25344;-59
2024/01/23 04:23:05;;;;;;;26.90;14.80;;;;;;;-10.38;100.00;139765.91;107075;1263;22990;-61
2024/01/23 04:25:51;;;;;;;24.10;12.50;;;;;;;-10.40;100.00;139762.20;107161;1264;25513;-60
2024/01/23 04:28:36;;;;;;;32.10;15.80;;;;;;;-10.41;100.00;139757.53;107052;1266;25406;-63
2024/01/23 04:31:22;;;;;;;34.00;14.90;;;;;;;-10.43;100.00;139753.09;107069;1264;25362;-58
2024/01/23 04:34:08;;;;;;;27.90;14.30;;;;;;;-10.42;100.00;139757.78;107039;1263;25353;-54
2024/01/23 04:36:53;;;;;;;24.60;14.40;;;;;;;-10.38;100.00;139765.41;107156;1266;25455;-58
2024/01/23 04:39:39;;;;;;;24.40;14.10;;;;;;;-10.35;100.00;139773.28;107071;1264;25516;-63
2024/01/23 04:42:25;;;;;;;24.00;14.40;;;;;;;-10.35;100.00;139774.75;107015;1266;25404;-60
2024/01/23 04:45:11;;;;;;;23.70;13.00;;;;;;;-10.38;100.00;139767.34;107026;1263;25366;-57
2024/01/23 04:47:56;;;;;;;25.60;13.90;;;;;;;-10.38;100.00;139765.66;107004;1264;25402;-55
2024/01/23 04:50:42;;;;;;;20.20;11.30;;;;;;;-10.33;100.00;139777.45;107009;1259;25356;-58
2024/01/23 04:53:32;;;;;;;27.30;13.50;;;;;;;-10.29;100.00;139787.78;107011;1264;25353;-60
2024/01/23 04:56:18;;;;;;;24.70;14.30;;;;;;;-10.29;100.00;139787.55;107032;1264;25396;-57
2024/01/23 04:59:04;;;;;;;26.80;14.00;;;;;;;-10.31;100.00;139782.63;107018;1263;25348;-56
2024/01/23 05:01:50;;;;;;;23.30;14.50;;;;;;;-10.30;100.00;139785.09;106991;1263;25513;-57
2024/01/23 05:04:35;;;;;;;23.50;12.90;;;;;;;-10.28;100.00;139790.25;107011;1266;25417;-62
2024/01/23 05:07:21;;;;;;;25.60;14.40;;;;;;;-10.29;100.00;139788.30;107018;1275;22546;-60
2024/01/23 05:10:06;;;;;;;23.60;13.90;;;;;;;-10.27;100.00;139793.17;106956;1263;25366;-59
2024/01/23 05:12:52;;;;;;;26.50;16.40;;;;;;;-10.29;100.00;139788.28;106983;1266;25401;-58
2024/01/23 05:15:38;;;;;;;31.60;14.90;;;;;;;-10.29;100.00;139788.05;106980;1266;25446;-61
2024/01/23 05:18:24;;;;;;;25.50;14.80;;;;;;;-10.27;100.00;139793.66;106973;1265;25360;-62
2024/01/23 05:21:09;;;;;;;31.50;16.00;;;;;;;-10.21;100.00;139806.20;106982;1266;25353;-62
2024/01/23 05:23:55;;;;;;;27.60;16.00;;;;;;;-10.20;100.00;139809.41;107029;1263;25456;-58
2024/01/23 05:26:40;;;;;;;30.90;16.40;;;;;;;-10.27;100.00;139794.16;106969;1262;25362;-61
2024/01/23 05:29:26;;;;;;;26.00;14.90;;;;;;;-10.28;100.00;139791.00;107062;1267;25383;-57
2024/01/23 05:32:12;;;;;;;25.30;14.10;;;;;;;-10.27;100.00;139793.45;107130;1266;25474;-60
2024/01/23 05:34:58;;;;;;;28.20;16.80;;;;;;;-10.27;100.00;139794.16;107343;1260;90798;-58
2024/01/23 05:37:43;;;;;;;26.70;14.90;;;;;;;-10.22;100.00;139803.28;107126;1264;25479;-59
2024/01/23 05:40:29;;;;;;;27.80;15.30;;;;;;;-10.21;100.00;139806.70;107236;1263;22516;-61
2024/01/23 05:43:14;;;;;;;27.10;15.00;;;;;;;-10.21;100.00;139807.67;107118;1266;25343;-57
2024/01/23 05:46:02;;;;;;;28.60;15.30;;;;;;;-10.20;100.00;139808.17;107149;1264;23202;-61
2024/01/23 05:48:47;;;;;;;28.20;14.80;;;;;;;-10.19;100.00;139810.89;107034;1257;25494;-58
2024/01/23 05:51:33;;;;;;;26.60;15.80;;;;;;;-10.14;100.00;139823.45;107232;1270;25421;-59
2024/01/23 05:54:18;;;;;;;28.70;16.20;;;;;;;-10.12;100.00;139828.63;107043;1266;25396;-60
2024/01/23 05:57:04;;;;;;;25.20;15.30;;;;;;;-10.10;100.00;139832.55;107240;1266;25411;-57
2024/01/23 05:59:49;;;;;;;23.10;13.10;;;;;;;-10.09;100.00;139834.78;107116;1263;25484;-58
2024/01/23 06:02:35;;;;;;;26.80;15.20;;;;;;;-10.06;100.00;139842.16;107561;1256;25220;-62
2024/01/23 06:05:21;;;;;;;32.30;16.90;;;;;;;-10.04;100.00;139847.34;107431;1273;25350;-58
2024/01/23 06:08:07;;;;;;;26.80;14.90;;;;;;;-10.05;100.00;139845.11;107415;1266;25291;-58
2024/01/23 06:10:52;;;;;;;23.50;13.60;;;;;;;-10.07;100.00;139840.95;107355;1260;25398;-55
2024/01/23 06:13:38;;;;;;;26.10;15.50;;;;;;;-10.03;100.00;139849.30;107516;1260;22522;-60
2024/01/23 06:16:24;;;;;;;26.70;16.20;;;;;;;-9.98;100.00;139862.59;108048;1260;26496;-57
2024/01/23 06:19:10;;;;;;;32.20;16.30;;;;;;;-9.93;100.00;139875.16;107494;1263;25344;-59
2024/01/23 06:21:55;;;;;;;29.30;16.20;;;;;;;-9.95;100.00;139870.97;107224;1260;25480;-57
2024/01/23 06:25:03;;;;;;;28.30;15.40;;;;;;;-9.92;100.00;139877.88;108082;1260;25338;-59
2024/01/23 06:27:48;;;;;;;28.70;15.20;;;;;;;-9.90;100.00;139880.58;107734;1260;22543;-56
2024/01/23 06:30:34;;;;;;;25.40;14.60;;;;;;;-9.93;100.00;139873.67;107160;1265;22650;-63
2024/01/23 06:33:19;;;;;;;27.00;15.20;;;;;;;-9.95;100.00;139870.47;107597;1263;23204;-57
2024/01/23 06:36:06;;;;;;;28.80;15.20;;;;;;;-9.90;100.00;139881.55;107223;1262;25476;-60
2024/01/23 06:38:52;;;;;;;24.90;13.80;;;;;;;-9.86;100.00;139891.42;107462;1267;25404;-56
2024/01/23 06:41:38;;;;;;;30.50;15.70;;;;;;;-9.79;100.00;139906.67;107364;1264;25325;-57
2024/01/23 06:44:23;;;;;;;27.30;16.50;;;;;;;-9.74;100.00;139918.78;107399;1260;26213;-60
2024/01/23 06:47:09;;;;;;;24.60;15.80;;;;;;;-9.69;100.00;139930.83;107013;1262;22915;-60
2024/01/23 06:49:55;;;;;;;29.90;16.00;;;;;;;-9.66;100.00;139937.97;107441;1260;25424;-61
2024/01/23 06:52:41;;;;;;;29.30;15.00;;;;;;;-9.62;100.00;139948.05;107997;1253;24387;-55
2024/01/23 06:55:26;;;;;;;25.90;15.00;;;;;;;-9.58;100.00;139958.42;107445;1262;25497;-59
2024/01/23 06:58:12;;;;;;;29.00;15.50;;;;;;;-9.54;100.00;139968.02;107497;1260;25363;-60
2024/01/23 07:00:58;;;;;;;30.40;17.40;;;;;;;-9.54;100.00;139968.52;107516;1265;25392;-56
2024/01/23 07:03:43;;;;;;;26.70;14.50;;;;;;;-9.53;100.00;139969.50;107579;1255;25532;-61
2024/01/23 07:06:29;;;;;;;24.00;15.40;;;;;;;-9.56;100.00;139964.33;107413;1263;25494;-61
2024/01/23 07:09:14;;;;;;;29.30;15.80;;;;;;;-9.55;100.00;139965.30;107474;1262;22566;-59
2024/01/23 07:12:00;;;;;;;27.50;15.60;;;;;;;-9.49;100.00;139979.09;107806;1260;23256;-58
2024/01/23 07:14:46;;;;;;;31.20;17.10;;;;;;;-9.40;100.00;140001.53;107452;1260;23407;-62
2024/01/23 07:17:32;;;;;;;24.40;14.60;;;;;;;-9.34;100.00;140015.58;107782;1260;25418;-63
2024/01/23 07:20:18;;;;;;;25.20;14.80;;;;;;;-9.33;100.00;140017.53;107409;1266;25366;-66
2024/01/23 07:23:04;;;;;;;27.10;14.90;;;;;;;-9.36;100.00;140011.13;107620;1262;23264;-59
2024/01/23 07:25:49;;;;;;;25.00;15.50;;;;;;;-9.30;100.00;140025.42;107390;1260;25334;-64
2024/01/23 07:28:35;;;;;;;22.80;13.30;;;;;;;-9.22;100.00;140044.64;107881;1263;24817;-59
2024/01/23 07:31:40;;;;;;;25.00;14.40;;;;;;;-9.18;100.00;140056.23;107559;1263;25353;-59
2024/01/23 07:34:26;;;;;;;23.80;14.30;;;;;;;-9.17;100.00;140057.20;107736;1261;22528;-56
2024/01/23 07:37:12;;;;;;;28.90;15.90;;;;;;;-9.14;100.00;140065.09;107825;1263;25571;-59
2024/01/23 07:39:58;;;;;;;29.90;15.70;;;;;;;-9.10;100.00;140074.20;107746;1265;22598;-57
2024/01/23 07:42:44;;;;;;;33.20;17.40;;;;;;;-9.11;100.00;140070.50;107357;1261;22832;-57
2024/01/23 07:45:30;;;;;;;26.20;15.50;;;;;;;-9.10;100.00;140074.20;107649;1263;24199;-60
2024/01/23 07:48:15;;;;;;;28.70;15.90;;;;;;;-9.03;100.00;140090.00;107477;1263;25335;-60
2024/01/23 07:51:01;;;;;;;24.90;13.70;;;;;;;-8.96;100.00;140106.98;107483;1260;22966;-57
2024/01/23 07:53:47;;;;;;;23.60;13.90;;;;;;;-8.99;100.00;140102.33;107567;1260;24218;-57
2024/01/23 07:56:33;;;;;;;18.70;12.40;;;;;;;-8.95;100.00;140110.19;108099;1266;25357;-60
2024/01/23 07:59:18;;;;;;;21.90;13.60;;;;;;;-8.87;100.00;140128.70;107307;1259;25384;-62
2024/01/23 08:02:04;;;;;;;26.90;14.00;;;;;;;-8.75;100.00;140157.05;107407;1264;24279;-58
2024/01/23 08:04:49;;;;;;;22.00;14.90;;;;;;;-8.66;100.00;140179.47;107624;1266;23432;-61
2024/01/23 08:07:35;;;;;;;27.00;13.30;;;;;;;-8.63;100.00;140188.59;107225;1267;25334;-60
2024/01/23 08:10:24;;;;;;;23.00;11.50;;;;;;;-8.61;100.00;140190.81;107844;1253;23281;-59
2024/01/23 08:13:09;;;;;;;24.50;13.60;;;;;;;-8.62;100.00;140190.33;107517;1267;22549;-61
2024/01/23 08:15:55;;;;;;;19.90;12.70;;;;;;;-8.58;100.00;140200.19;107733;1269;23529;-62
2024/01/23 08:18:40;;;;;;;21.90;13.60;;;;;;;-8.56;100.00;140203.66;107896;1257;22880;-60
2024/01/23 08:21:26;;;;;;;24.10;15.00;;;;;;;-8.55;100.00;140208.58;107478;1267;25420;-61
2024/01/23 08:24:12;;;;;;;29.80;14.00;;;;;;;-8.48;100.00;140223.63;107597;1264;25418;-63
2024/01/23 08:26:58;;;;;;;23.20;12.10;;;;;;;-8.49;100.00;140220.41;107477;1266;25558;-60
2024/01/23 08:29:44;;;;;;;20.10;11.10;;;;;;;-8.54;100.00;140208.84;107603;1263;25462;-60
2024/01/23 08:32:30;;;;;;;22.60;12.20;;;;;;;-8.52;100.00;140214.73;107680;1259;25388;-61
2024/01/23 08:35:16;;;;;;;24.10;14.30;;;;;;;-8.47;100.00;140224.84;108064;1259;22796;-61
2024/01/23 08:38:02;;;;;;;27.60;15.60;;;;;;;-8.39;100.00;140244.30;107653;1263;22530;-59
2024/01/23 08:40:48;;;;;;;23.10;13.20;;;;;;;-8.31;100.00;140263.03;107270;1260;25347;-60
2024/01/23 08:43:34;;;;;;;25.30;13.60;;;;;;;-8.29;100.00;140268.47;107353;1264;25255;-59
2024/01/23 08:46:21;;;;;;;33.80;16.00;;;;;;;-8.32;100.00;140261.55;107715;1260;23242;-61
2024/01/23 08:49:07;;;;;;;26.10;13.50;;;;;;;-8.36;100.00;140253.41;107322;1263;25420;-63
2024/01/23 08:51:52;;;;;;;20.20;12.50;;;;;;;-8.38;100.00;140247.50;107646;1266;22555;-58
2024/01/23 08:54:41;;;;;;;22.20;13.00;;;;;;;-8.42;100.00;140237.67;107496;1259;22540;-60
2024/01/23 08:57:26;;;;;;;24.60;14.10;;;;;;;-8.45;100.00;140230.28;107402;1263;25892;-56
2024/01/23 09:00:13;;;;;;;25.50;14.80;;;;;;;-8.46;100.00;140227.56;107662;1260;26096;-62
2024/01/23 09:02:59;;;;;;;26.10;14.40;;;;;;;-8.48;100.00;140222.63;107476;1264;25414;-59
2024/01/23 09:05:45;;;;;;;21.60;13.10;;;;;;;-8.50;100.00;140218.69;108026;1260;22635;-61
2024/01/23 09:08:31;;;;;;;24.60;13.50;;;;;;;-8.50;100.00;140218.92;107215;1260;25366;-63
2024/01/23 09:11:17;;;;;;;21.80;13.10;;;;;;;-8.46;100.00;140228.30;107528;1259;23261;-62
2024/01/23 09:14:03;;;;;;;26.00;13.70;;;;;;;-8.43;100.00;140234.22;108291;1266;23057;-58
2024/01/23 09:16:49;;;;;;;19.90;12.90;;;;;;;-8.41;100.00;140240.63;107475;1271;22523;-62
2024/01/23 09:19:35;;;;;;;24.80;13.00;;;;;;;-8.41;100.00;140239.16;107297;1254;25394;-63
2024/01/23 09:22:21;;;;;;;23.80;13.20;;;;;;;-8.35;100.00;140254.63;107530;1269;22643;-63
2024/01/23 09:25:07;;;;;;;27.50;13.70;;;;;;;-8.29;100.00;140268.45;107419;1256;25401;-63
2024/01/23 09:27:52;;;;;;;24.10;14.60;;;;;;;-8.29;100.00;140268.45;107385;1263;23760;-59
2024/01/23 09:30:40;;;;;;;22.30;14.20;;;;;;;-8.37;100.00;140249.45;107285;1260;25347;-61
2024/01/23 09:33:25;;;;;;;23.60;13.50;;;;;;;-8.42;100.00;140237.19;107599;1261;25406;-65
2024/01/23 09:36:11;;;;;;;24.80;13.50;;;;;;;-8.44;100.00;140231.27;107807;1267;25068;-62
2024/01/23 09:38:57;;;;;;;20.80;12.10;;;;;;;-8.45;100.00;140229.78;107767;1257;22595;-61
2024/01/23 09:41:50;;;;;;;24.10;12.90;;;;;;;-8.39;100.00;140244.08;107593;1256;22751;-62
2024/01/23 09:44:36;;;;;;;24.80;14.60;;;;;;;-8.34;100.00;140257.09;107660;1258;23247;-65
2024/01/23 09:47:24;;;;;;;27.10;15.00;;;;;;;-8.26;100.00;140276.09;107703;1257;23213;-62
2024/01/23 09:50:14;;;;;;;25.00;15.10;;;;;;;-8.26;100.00;140275.61;107230;1263;25347;-62
2024/01/23 09:53:00;;;;;;;19.40;12.40;;;;;;;-8.26;100.00;140276.84;107606;1257;24212;-62
2024/01/23 09:55:46;;;;;;;22.20;12.80;;;;;;;-8.21;100.00;140289.42;107815;1267;22962;-62
2024/01/23 09:58:32;;;;;;;24.90;13.40;;;;;;;-8.11;100.00;140312.09;107354;1257;25382;-59
2024/01/23 10:01:18;;;;;;;25.40;13.90;;;;;;;-8.08;100.00;140320.50;107654;1264;25363;-62
2024/01/23 10:04:06;;;;;;;21.80;13.20;;;;;;;-8.09;100.00;140317.78;107374;1269;25175;-62
2024/01/23 10:06:52;;;;;;;21.10;13.10;;;;;;;-8.12;100.00;140309.88;107136;1259;23321;-61
2024/01/23 10:09:47;;;;;;;21.80;13.30;;;;;;;-8.15;100.00;140303.00;107019;1259;25353;-61
2024/01/23 10:12:33;;;;;;;22.20;13.80;;;;;;;-8.16;100.00;140301.50;107395;1257;25408;-62
2024/01/23 10:15:22;;;;;;;23.10;13.60;;;;;;;-8.19;100.00;140293.84;106846;1260;25347;-63
2024/01/23 10:18:09;;;;;;;22.60;13.90;;;;;;;-8.18;100.00;140297.33;106818;1266;25412;-63
2024/01/23 10:20:56;;;;;;;22.60;12.90;;;;;;;-8.11;100.00;140313.09;106869;1259;25324;-62
2024/01/23 10:23:42;;;;;;;21.90;13.20;;;;;;;-8.06;100.00;140323.47;106872;1257;25490;-63
2024/01/23 10:26:28;;;;;;;19.60;12.90;;;;;;;-8.06;100.00;140325.19;106889;1274;25519;-61
2024/01/23 10:29:14;;;;;;;21.40;12.80;;;;;;;-8.08;100.00;140320.75;106866;1257;25400;-61
2024/01/23 10:31:59;;;;;;;20.10;11.20;;;;;;;-8.15;100.00;140302.50;106847;1274;25462;-63
2024/01/23 10:34:46;;;;;;;20.70;12.60;;;;;;;-8.26;100.00;140275.36;107133;1257;23082;-62
2024/01/23 10:37:32;;;;;;;23.20;12.70;;;;;;;-8.28;100.00;140271.17;107843;1256;26194;-61
2024/01/23 10:40:23;;;;;;;23.20;13.10;;;;;;;-8.31;100.00;140264.27;107569;1260;23514;-62
2024/01/23 10:43:11;;;;;;;27.60;14.80;;;;;;;-8.28;100.00;140270.94;106921;1262;25443;-64
2024/01/23 10:45:58;;;;;;;24.00;12.60;;;;;;;-8.22;100.00;140286.70;107440;1275;25457;-62
2024/01/23 10:48:44;;;;;;;21.60;13.60;;;;;;;-8.17;100.00;140299.30;107232;1259;25484;-63
2024/01/23 10:51:35;;;;;;;21.50;12.80;;;;;;;-8.16;100.00;140301.03;107046;1257;25344;-61
2024/01/23 10:54:31;;;;;;;19.50;12.20;;;;;;;-8.06;100.00;140324.44;107210;1258;25424;-62
2024/01/23 10:57:22;;;;;;;20.00;12.80;;;;;;;-8.04;100.00;140329.63;108169;1259;23027;-64
2024/01/23 11:00:11;;;;;;;26.20;13.90;;;;;;;-7.98;100.00;140343.20;107635;1261;25408;-65
2024/01/23 11:02:59;;;;;;;22.20;14.50;;;;;;;-7.95;100.00;140351.59;107920;1260;25518;-64
2024/01/23 11:05:52;;;;;;;21.70;13.10;;;;;;;-7.95;100.00;140351.09;107700;1259;25475;-61
2024/01/23 11:08:44;;;;;;;20.90;12.70;;;;;;;-7.96;100.00;140348.63;107363;1264;22586;-63
2024/01/23 11:11:41;;;;;;;22.90;11.50;;;;;;;-7.97;100.00;140345.91;108171;1260;25363;-60
2024/01/23 11:14:36;;;;;;;20.00;12.50;;;;;;;-7.97;100.00;140347.16;107243;1258;25436;-61
2024/01/23 11:17:23;;;;;;;21.80;13.30;;;;;;;-7.92;100.00;140358.97;107483;1262;26806;-61
2024/01/23 11:20:13;;;;;;;29.30;15.50;;;;;;;-7.88;100.00;140368.63;107763;1262;27114;-61
2024/01/23 11:23:13;;;;;;;25.80;14.50;;;;;;;-7.85;100.00;140375.28;107528;1262;25497;-63
2024/01/23 11:26:12;;;;;;;29.90;15.40;;;;;;;-7.87;100.00;140371.59;107456;1259;22526;-62
2024/01/23 11:29:07;;;;;;;30.60;15.80;;;;;;;-7.85;100.00;140376.52;107489;1263;25430;-60
2024/01/23 11:32:15;;;;;;;23.30;15.00;;;;;;;-7.77;100.00;140395.28;107124;1266;25952;-63
2024/01/23 11:35:02;;;;;;;23.30;13.50;;;;;;;-7.71;100.00;140409.34;107134;1262;25355;-63
2024/01/23 11:37:53;;;;;;;24.00;12.40;;;;;;;-7.69;100.00;140415.50;107289;1259;22561;-62
2024/01/23 11:40:42;;;;;;;26.80;13.60;;;;;;;-7.68;100.00;140418.22;107342;1263;25426;-63
2024/01/23 11:43:30;;;;;;;25.60;14.40;;;;;;;-7.74;100.00;140401.44;107936;1259;22867;-62
2024/01/23 11:46:18;;;;;;;20.60;12.80;;;;;;;-7.79;100.00;140389.84;107760;1259;25398;-61
2024/01/23 11:49:07;;;;;;;23.20;13.30;;;;;;;-7.88;100.00;140367.41;107580;1254;22520;-62
2024/01/23 11:51:55;;;;;;;23.70;12.20;;;;;;;-7.92;100.00;140358.23;107510;1263;25366;-63
2024/01/23 11:54:41;;;;;;;21.00;12.80;;;;;;;-7.95;100.00;140351.34;107492;1259;23094;-60
2024/01/23 11:57:27;;;;;;;27.10;12.80;;;;;;;-7.98;100.00;140342.70;107364;1260;25528;-61
2024/01/23 12:00:14;;;;;;;21.10;12.90;;;;;;;-7.96;100.00;140348.39;107563;1259;23346;-63
2024/01/23 12:03:00;;;;;;;27.90;15.70;;;;;;;-7.94;100.00;140352.34;107656;1259;23389;-62
2024/01/23 12:05:47;;;;;;;23.70;13.10;;;;;;;-8.01;100.00;140335.05;107512;1256;22538;-61
2024/01/23 12:08:35;;;;;;;24.80;14.40;;;;;;;-8.10;100.00;140315.08;107516;1263;25372;-58
2024/01/23 12:11:22;;;;;;;28.40;14.50;;;;;;;-8.11;100.00;140313.84;107502;1263;25415;-59
2024/01/23 12:14:08;;;;;;;25.50;15.00;;;;;;;-8.14;100.00;140304.72;107785;1259;23307;-62